createdAt,value
2022-10-05T00:02:18.407Z,15.25
2022-10-05T00:04:45.859Z,15.26
2022-10-05T00:07:16.737Z,15.24
2022-10-05T00:09:45.401Z,15.26
2022-10-05T00:12:15.935Z,15.26
2022-10-05T00:14:44.365Z,15.24
2022-10-05T00:17:18.073Z,15.21
2022-10-05T00:19:46.675Z,15.24
2022-10-05T00:22:16.570Z,15.21
2022-10-05T00:24:44.284Z,15.15
2022-10-05T00:27:15.060Z,15.09
2022-10-05T00:29:41.917Z,15.05
2022-10-05T00:32:09.044Z,15.01
2022-10-05T00:34:37.446Z,15.00
2022-10-05T00:37:04.754Z,15.00
2022-10-05T00:39:32.243Z,15.05
2022-10-05T00:42:19.959Z,15.03
2022-10-05T00:44:52.717Z,15.04
2022-10-05T00:47:33.007Z,15.07
2022-10-05T00:50:24.020Z,15.07
2022-10-05T00:52:58.016Z,15.07
2022-10-05T00:55:35.832Z,15.10
2022-10-05T00:58:13.210Z,15.07
2022-10-05T01:00:51.304Z,15.05
2022-10-05T01:03:23.734Z,15.07
2022-10-05T01:06:03.433Z,15.08
2022-10-05T01:08:43.443Z,15.08
2022-10-05T01:11:16.765Z,15.08
2022-10-05T01:13:51.213Z,15.06
2022-10-05T01:16:26.247Z,15.06
2022-10-05T01:18:59.264Z,15.12
2022-10-05T01:21:31.497Z,15.16
2022-10-05T01:24:25.720Z,15.12
2022-10-05T01:27:25.025Z,15.12
2022-10-05T01:29:59.437Z,15.13
2022-10-05T01:32:34.446Z,15.15
2022-10-05T01:35:09.334Z,15.14
2022-10-05T01:37:47.423Z,15.13
2022-10-05T01:40:23.571Z,15.09
2022-10-05T01:43:00.343Z,15.06
2022-10-05T01:45:39.660Z,15.06
2022-10-05T01:48:10.083Z,15.01
2022-10-05T01:50:47.571Z,15.00
2022-10-05T01:53:24.892Z,15.01
2022-10-05T01:55:58.886Z,15.00
2022-10-05T01:58:36.355Z,15.05
2022-10-05T02:01:12.941Z,15.02
2022-10-05T02:03:47.310Z,15.04
2022-10-05T02:06:20.007Z,15.06
2022-10-05T02:08:54.832Z,15.04
2022-10-05T02:11:21.829Z,14.94
2022-10-05T02:13:53.380Z,15.04
2022-10-05T02:16:29.245Z,15.02
2022-10-05T02:19:00.852Z,15.03
2022-10-05T02:21:29.982Z,14.99
2022-10-05T02:24:03.995Z,15.03
2022-10-05T02:26:33.327Z,15.00
2022-10-05T02:29:04.247Z,15.02
2022-10-05T02:31:40.624Z,15.04
2022-10-05T02:34:23.478Z,15.05
2022-10-05T02:37:07.016Z,15.03
2022-10-05T02:39:40.196Z,15.03
2022-10-05T02:42:16.120Z,15.07
2022-10-05T02:44:53.766Z,15.10
2022-10-05T02:47:29.856Z,15.09
2022-10-05T02:50:03.495Z,15.08
2022-10-05T02:52:44.566Z,15.05
2022-10-05T02:55:20.001Z,15.02
2022-10-05T02:57:53.179Z,15.06
2022-10-05T03:00:23.154Z,15.04
2022-10-05T03:03:02.038Z,15.02
2022-10-05T03:05:34.748Z,15.02
2022-10-05T03:08:07.670Z,15.01
2022-10-05T03:10:39.484Z,15.03
2022-10-05T03:13:10.156Z,15.04
2022-10-05T03:16:03.051Z,15.02
2022-10-05T03:18:44.844Z,15.01
2022-10-05T03:21:25.272Z,15.03
2022-10-05T03:24:05.430Z,15.05
2022-10-05T03:26:42.937Z,15.02
2022-10-05T03:29:20.958Z,15.00
2022-10-05T03:31:56.592Z,14.99
2022-10-05T03:34:33.760Z,14.91
2022-10-05T03:37:05.585Z,14.97
2022-10-05T03:39:39.150Z,14.98
2022-10-05T03:42:16.173Z,15.00
2022-10-05T03:44:54.174Z,15.02
2022-10-05T03:47:31.184Z,15.01
2022-10-05T03:50:23.127Z,15.00
2022-10-05T03:52:56.234Z,15.01
2022-10-05T03:55:32.933Z,15.01
2022-10-05T03:58:06.805Z,15.04
2022-10-05T04:00:36.986Z,15.01
2022-10-05T04:03:11.185Z,15.00
2022-10-05T04:05:47.092Z,15.00
2022-10-05T04:08:23.139Z,14.99
2022-10-05T04:10:54.291Z,14.98
2022-10-05T04:13:28.844Z,14.95
2022-10-05T04:16:01.375Z,14.96
2022-10-05T04:18:32.587Z,14.95
2022-10-05T04:21:09.192Z,14.95
2022-10-05T04:23:45.434Z,14.93
2022-10-05T04:26:17.846Z,14.91
2022-10-05T04:28:52.670Z,14.85
2022-10-05T04:31:31.513Z,14.88
2022-10-05T04:34:10.669Z,14.87
2022-10-05T04:36:49.827Z,14.83
2022-10-05T04:39:28.995Z,14.81
2022-10-05T04:42:04.344Z,14.82
2022-10-05T04:44:47.229Z,14.80
2022-10-05T04:47:27.814Z,14.76
2022-10-05T04:50:16.100Z,14.73
2022-10-05T04:53:07.397Z,14.62
2022-10-05T04:55:43.695Z,14.62
2022-10-05T04:58:26.019Z,14.61
2022-10-05T05:01:06.049Z,14.60
2022-10-05T05:03:55.108Z,14.65
2022-10-05T05:06:32.910Z,14.64
2022-10-05T05:09:39.357Z,14.71
2022-10-05T05:12:19.775Z,14.65
2022-10-05T05:15:03.232Z,14.70
2022-10-05T05:17:47.120Z,14.71
2022-10-05T05:20:22.651Z,14.71
2022-10-05T05:22:57.487Z,14.73
2022-10-05T05:25:39.124Z,14.78
2022-10-05T05:28:17.215Z,14.78
2022-10-05T05:30:48.834Z,14.76
2022-10-05T05:33:23.409Z,14.79
2022-10-05T05:36:23.560Z,14.78
2022-10-05T05:39:06.803Z,14.74
2022-10-05T05:41:39.300Z,14.72
2022-10-05T05:44:20.331Z,14.71
2022-10-05T05:47:03.582Z,14.76
2022-10-05T05:49:49.932Z,14.70
2022-10-05T05:52:22.319Z,14.75
2022-10-05T05:54:56.626Z,14.75
2022-10-05T05:57:29.637Z,14.74
2022-10-05T06:00:06.326Z,14.75
2022-10-05T06:02:53.901Z,14.76
2022-10-05T06:05:30.313Z,14.75
2022-10-05T06:08:00.659Z,14.80
2022-10-05T06:10:34.863Z,14.79
2022-10-05T06:13:16.247Z,14.83
2022-10-05T06:15:48.133Z,14.82
2022-10-05T06:18:19.656Z,14.80
2022-10-05T06:20:52.240Z,14.81
2022-10-05T06:23:25.428Z,14.77
2022-10-05T06:26:10.802Z,14.76
2022-10-05T06:28:41.781Z,14.79
2022-10-05T06:31:23.463Z,14.82
2022-10-05T06:33:56.497Z,14.81
2022-10-05T06:36:35.087Z,14.80
2022-10-05T06:39:21.254Z,14.84
2022-10-05T06:42:05.226Z,14.85
2022-10-05T06:45:12.281Z,14.83
2022-10-05T06:47:55.066Z,14.82
2022-10-05T06:50:49.771Z,14.78
2022-10-05T06:53:34.342Z,14.81
2022-10-05T06:56:09.025Z,14.82
2022-10-05T06:58:50.244Z,14.81
2022-10-05T07:01:29.160Z,14.79
2022-10-05T07:04:21.298Z,14.71
2022-10-05T07:06:52.833Z,14.77
2022-10-05T07:09:40.445Z,14.78
2022-10-05T07:12:40.528Z,14.87
2022-10-05T07:15:25.264Z,14.90
2022-10-05T07:18:06.462Z,14.99
2022-10-05T07:20:44.502Z,14.99
2022-10-05T07:23:26.594Z,15.05
2022-10-05T07:26:03.336Z,15.08
2022-10-05T07:28:40.309Z,15.14
2022-10-05T07:31:13.959Z,15.21
2022-10-05T07:33:51.670Z,15.22
2022-10-05T07:36:51.010Z,15.25
2022-10-05T07:39:42.105Z,15.30
2022-10-05T07:42:29.629Z,15.39
2022-10-05T07:45:02.197Z,15.43
2022-10-05T07:47:36.131Z,15.53
2022-10-05T07:50:18.036Z,15.54
2022-10-05T07:52:52.756Z,15.56
2022-10-05T07:55:21.821Z,15.61
2022-10-05T07:58:02.067Z,15.63
2022-10-05T08:00:56.140Z,15.65
2022-10-05T08:03:34.472Z,15.72
2022-10-05T08:06:05.995Z,15.76
2022-10-05T08:08:45.137Z,15.84
2022-10-05T08:11:19.190Z,15.82
2022-10-05T08:13:52.885Z,15.86
2022-10-05T08:16:20.488Z,15.92
2022-10-05T08:18:56.490Z,16.01
2022-10-05T08:21:30.909Z,16.09
2022-10-05T08:24:06.031Z,16.09
2022-10-05T08:26:41.057Z,16.01
2022-10-05T08:29:17.669Z,16.21
2022-10-05T08:31:49.000Z,16.35
2022-10-05T08:34:26.060Z,16.40
2022-10-05T08:37:02.206Z,16.46
2022-10-05T08:39:35.366Z,16.54
2022-10-05T08:42:34.385Z,16.51
2022-10-05T08:45:27.065Z,16.57
2022-10-05T08:48:10.693Z,16.63
2022-10-05T08:50:57.267Z,16.71
2022-10-05T08:53:45.977Z,16.75
2022-10-05T08:56:36.612Z,16.85
2022-10-05T08:59:29.661Z,16.99
2022-10-05T09:02:09.142Z,16.92
2022-10-05T09:04:47.865Z,17.01
2022-10-05T09:07:29.331Z,16.77
2022-10-05T09:10:52.877Z,16.78
2022-10-05T09:14:06.993Z,16.81
2022-10-05T09:16:50.398Z,16.83
2022-10-05T09:19:57.867Z,16.92
2022-10-05T09:22:36.706Z,16.94
2022-10-05T09:25:23.276Z,16.81
2022-10-05T09:27:56.362Z,16.93
2022-10-05T09:30:44.731Z,16.88
2022-10-05T09:33:45.644Z,16.94
2022-10-05T09:36:45.190Z,16.87
2022-10-05T09:39:37.738Z,16.93
2022-10-05T09:42:26.860Z,16.91
2022-10-05T09:45:33.840Z,16.70
2022-10-05T09:48:43.167Z,16.67
2022-10-05T09:51:52.463Z,16.58
2022-10-05T09:55:07.109Z,16.57
2022-10-05T09:58:12.180Z,16.46
2022-10-05T10:01:08.935Z,16.48
2022-10-05T10:04:22.399Z,16.44
2022-10-05T10:07:05.036Z,16.36
2022-10-05T10:09:48.793Z,16.39
2022-10-05T10:12:42.479Z,16.40
2022-10-05T10:15:38.520Z,16.45
2022-10-05T10:18:33.081Z,16.41
2022-10-05T10:21:16.728Z,16.42
2022-10-05T10:24:03.688Z,16.38
2022-10-05T10:27:00.471Z,16.40
2022-10-05T10:29:40.061Z,16.36
2022-10-05T10:32:24.938Z,16.39
2022-10-05T10:35:14.231Z,16.45
2022-10-05T10:38:13.988Z,16.43
2022-10-05T10:40:54.644Z,16.39
2022-10-05T10:43:47.290Z,16.40
2022-10-05T10:46:28.346Z,16.32
2022-10-05T10:49:00.808Z,16.37
2022-10-05T10:52:04.121Z,16.34
2022-10-05T10:55:16.276Z,16.38
2022-10-05T10:57:57.195Z,16.36
2022-10-05T11:00:41.043Z,16.29
2022-10-05T11:03:34.955Z,16.29
2022-10-05T11:06:17.327Z,16.32
2022-10-05T11:09:11.040Z,16.33
2022-10-05T11:12:13.862Z,16.27
2022-10-05T11:15:20.559Z,16.22
2022-10-05T11:18:15.706Z,16.21
2022-10-05T11:21:10.719Z,16.21
2022-10-05T11:24:20.411Z,16.22
2022-10-05T11:27:08.420Z,16.30
2022-10-05T11:30:10.959Z,16.23
2022-10-05T11:33:04.063Z,16.20
2022-10-05T11:35:55.079Z,16.19
2022-10-05T11:39:06.733Z,16.17
2022-10-05T11:42:00.861Z,16.20
2022-10-05T11:45:14.150Z,16.27
2022-10-05T11:47:52.174Z,16.27
2022-10-05T11:50:23.601Z,16.33
2022-10-05T11:52:57.091Z,16.33
2022-10-05T11:55:28.122Z,16.36
2022-10-05T11:57:58.943Z,16.29
2022-10-05T12:00:33.087Z,16.20
2022-10-05T12:03:29.561Z,16.27
2022-10-05T12:06:12.037Z,16.28
2022-10-05T12:08:52.037Z,16.35
2022-10-05T12:11:41.865Z,16.34
2022-10-05T12:14:20.360Z,16.39
2022-10-05T12:16:54.244Z,16.46
2022-10-05T12:19:29.765Z,16.50
2022-10-05T12:22:04.290Z,16.52
2022-10-05T12:25:02.556Z,16.50
2022-10-05T12:27:35.093Z,16.58
2022-10-05T12:30:12.446Z,16.64
2022-10-05T12:32:45.344Z,16.58
2022-10-05T12:35:29.993Z,16.54
2022-10-05T12:38:11.647Z,16.57
2022-10-05T12:40:45.444Z,16.59
2022-10-05T12:43:22.419Z,16.68
2022-10-05T12:46:00.817Z,16.86
2022-10-05T12:48:56.310Z,16.98
2022-10-05T12:51:35.743Z,17.10
2022-10-05T12:54:10.971Z,17.12
2022-10-05T12:56:48.392Z,17.14
2022-10-05T12:59:24.578Z,17.22
2022-10-05T13:01:59.551Z,17.24
2022-10-05T13:04:38.910Z,17.25
2022-10-05T13:07:30.509Z,17.21
2022-10-05T13:10:03.666Z,17.25
2022-10-05T13:12:42.851Z,17.29
2022-10-05T13:15:18.969Z,17.25
2022-10-05T13:17:53.901Z,17.32
2022-10-05T13:20:29.790Z,17.28
2022-10-05T13:23:03.214Z,17.43
2022-10-05T13:25:34.479Z,17.49
2022-10-05T13:28:15.255Z,17.59
2022-10-05T13:30:50.704Z,17.56
2022-10-05T13:33:27.664Z,17.58
2022-10-05T13:36:03.814Z,17.63
2022-10-05T13:38:38.850Z,17.68
2022-10-05T13:41:16.533Z,17.94
2022-10-05T13:43:51.663Z,17.96
2022-10-05T13:46:29.287Z,17.99
2022-10-05T13:49:04.858Z,17.80
2022-10-05T13:51:41.068Z,17.68
2022-10-05T13:54:16.943Z,17.64
2022-10-05T13:56:48.638Z,17.59
2022-10-05T13:59:24.749Z,17.49
2022-10-05T14:01:59.040Z,17.51
2022-10-05T14:04:30.126Z,17.51
2022-10-05T14:06:58.169Z,17.39
2022-10-05T14:09:30.437Z,17.28
2022-10-05T14:12:14.083Z,17.23
2022-10-05T14:14:47.625Z,17.25
2022-10-05T14:17:16.532Z,17.26
2022-10-05T14:19:46.276Z,17.36
2022-10-05T14:22:16.494Z,17.40
2022-10-05T14:24:54.303Z,17.52
2022-10-05T14:27:24.825Z,17.69
2022-10-05T14:29:58.382Z,17.75
2022-10-05T14:32:27.430Z,17.82
2022-10-05T14:35:15.437Z,17.72
2022-10-05T14:37:51.057Z,17.68
2022-10-05T14:40:24.725Z,17.58
2022-10-05T14:42:51.901Z,17.56
2022-10-05T14:45:21.327Z,17.56
2022-10-05T14:47:50.820Z,17.54
2022-10-05T14:50:21.639Z,17.47
2022-10-05T14:53:03.786Z,17.49
2022-10-05T14:55:46.224Z,17.47
2022-10-05T14:58:26.644Z,17.46
2022-10-05T15:01:02.352Z,17.34
2022-10-05T15:03:46.823Z,17.27
2022-10-05T15:06:23.055Z,17.18
2022-10-05T15:09:17.090Z,17.18
2022-10-05T15:11:50.266Z,17.18
2022-10-05T15:14:19.981Z,17.13
2022-10-05T15:16:51.930Z,17.08
2022-10-05T15:19:22.924Z,17.07
2022-10-05T15:22:05.759Z,17.04
2022-10-05T15:24:43.433Z,16.99
2022-10-05T15:27:23.996Z,16.97
2022-10-05T15:30:04.695Z,16.94
2022-10-05T15:32:42.973Z,16.92
2022-10-05T15:35:35.346Z,16.90
2022-10-05T15:38:14.009Z,16.91
2022-10-05T15:40:45.803Z,16.91
2022-10-05T15:43:17.388Z,16.92
2022-10-05T15:45:54.023Z,16.89
2022-10-05T15:48:29.370Z,16.91
2022-10-05T15:51:03.345Z,16.92
2022-10-05T15:53:43.269Z,16.88
2022-10-05T15:56:19.402Z,16.87
2022-10-05T15:58:54.207Z,16.82
2022-10-05T16:01:30.272Z,16.77
2022-10-05T16:04:02.463Z,16.76
2022-10-05T16:07:02.462Z,16.84
2022-10-05T16:10:03.579Z,16.85
2022-10-05T16:12:42.840Z,16.87
2022-10-05T16:15:21.784Z,16.85
2022-10-05T16:18:03.736Z,16.80
2022-10-05T16:20:43.029Z,16.80
2022-10-05T16:23:18.658Z,16.81
2022-10-05T16:26:02.274Z,16.84
2022-10-05T16:28:39.633Z,16.85
2022-10-05T16:31:16.527Z,16.83
2022-10-05T16:33:54.667Z,16.87
2022-10-05T16:36:35.813Z,16.83
2022-10-05T16:39:07.295Z,16.85
2022-10-05T16:41:42.766Z,16.87
2022-10-05T16:44:21.075Z,16.91
2022-10-05T16:46:52.804Z,16.89
2022-10-05T16:49:32.838Z,16.88
2022-10-05T16:52:01.613Z,16.82
2022-10-05T16:54:32.222Z,16.80
2022-10-05T16:57:05.641Z,16.83
2022-10-05T17:00:16.292Z,16.85
2022-10-05T17:02:47.022Z,16.87
2022-10-05T17:05:30.360Z,16.87
2022-10-05T17:08:26.698Z,16.86
2022-10-05T17:11:17.350Z,16.89
2022-10-05T17:14:13.983Z,16.89
2022-10-05T17:16:56.671Z,16.97
2022-10-05T17:19:47.447Z,16.98
2022-10-05T17:22:24.288Z,16.93
2022-10-05T17:24:59.482Z,16.99
2022-10-05T17:27:32.980Z,16.98
2022-10-05T17:30:22.527Z,17.03
2022-10-05T17:32:58.297Z,17.08
2022-10-05T17:35:53.424Z,17.10
2022-10-05T17:38:22.711Z,17.08
2022-10-05T17:41:14.030Z,17.11
2022-10-05T17:44:01.489Z,17.10
2022-10-05T17:46:39.854Z,17.11
2022-10-05T17:49:21.034Z,17.11
2022-10-05T17:52:16.538Z,17.07
2022-10-05T17:55:28.198Z,17.14
2022-10-05T17:57:59.858Z,17.06
2022-10-05T18:00:33.626Z,17.00
2022-10-05T18:03:35.453Z,16.85
2022-10-05T18:06:22.406Z,16.55
2022-10-05T18:08:49.846Z,16.35
2022-10-05T18:11:38.161Z,16.15
2022-10-05T18:14:18.484Z,15.91
2022-10-05T18:17:04.224Z,15.75
2022-10-05T18:19:33.393Z,15.67
2022-10-05T18:22:06.214Z,15.72
2022-10-05T18:24:56.271Z,15.46
2022-10-05T18:27:49.835Z,15.17
2022-10-05T18:30:20.761Z,14.91
2022-10-05T18:33:04.177Z,14.78
2022-10-05T18:35:44.819Z,14.65
2022-10-05T18:38:27.854Z,14.59
2022-10-05T18:41:01.939Z,14.60
2022-10-05T18:43:36.925Z,14.56
2022-10-05T18:46:22.774Z,14.50
2022-10-05T18:49:01.958Z,14.25
2022-10-05T18:51:40.838Z,14.47
2022-10-05T18:54:19.947Z,14.47
2022-10-05T18:56:50.337Z,14.40
2022-10-05T18:59:35.933Z,14.31
2022-10-05T19:02:23.241Z,14.41
2022-10-05T19:05:23.604Z,14.35
2022-10-05T19:08:08.001Z,14.35
2022-10-05T19:10:43.558Z,14.31
2022-10-05T19:13:28.451Z,14.26
2022-10-05T19:16:09.487Z,14.23
2022-10-05T19:18:50.792Z,14.23
2022-10-05T19:21:30.594Z,14.25
2022-10-05T19:24:21.618Z,14.20
2022-10-05T19:27:00.881Z,14.23
2022-10-05T19:29:43.319Z,14.21
2022-10-05T19:32:18.518Z,14.15
2022-10-05T19:35:12.351Z,14.21
2022-10-05T19:37:48.789Z,14.21
2022-10-05T19:40:26.559Z,14.25
2022-10-05T19:43:09.813Z,14.29
2022-10-05T19:45:42.231Z,14.31
2022-10-05T19:48:22.298Z,14.34
2022-10-05T19:50:54.765Z,14.27
2022-10-05T19:53:26.179Z,14.28
2022-10-05T19:55:55.640Z,14.27
2022-10-05T19:58:23.803Z,14.31
2022-10-05T20:00:59.010Z,14.31
2022-10-05T20:03:27.757Z,14.33
2022-10-05T20:05:56.913Z,14.27
2022-10-05T20:08:31.053Z,14.25
2022-10-05T20:11:08.864Z,14.21
2022-10-05T20:13:36.027Z,14.17
2022-10-05T20:16:37.162Z,14.15
2022-10-05T20:19:23.344Z,14.07
2022-10-05T20:21:52.030Z,14.07
2022-10-05T20:24:21.016Z,14.00
2022-10-05T20:27:05.555Z,13.89
2022-10-05T20:29:35.679Z,13.91
2022-10-05T20:32:08.284Z,13.88
2022-10-05T20:34:37.218Z,13.87
2022-10-05T20:37:04.284Z,13.86
2022-10-05T20:39:31.504Z,13.85
2022-10-05T20:42:00.083Z,13.82
2022-10-05T20:44:27.195Z,13.85
2022-10-05T20:46:57.586Z,13.85
2022-10-05T20:49:26.805Z,13.87
2022-10-05T20:51:56.075Z,13.82
2022-10-05T20:54:23.798Z,13.82
2022-10-05T20:56:51.126Z,13.74
2022-10-05T20:59:19.473Z,13.68
2022-10-05T21:01:48.134Z,13.63
2022-10-05T21:04:15.781Z,13.55
2022-10-05T21:06:43.788Z,13.59
2022-10-05T21:09:11.632Z,13.54
2022-10-05T21:11:39.685Z,13.54
2022-10-05T21:14:06.495Z,13.43
2022-10-05T21:16:37.853Z,13.40
2022-10-05T21:19:14.641Z,13.36
2022-10-05T21:21:42.982Z,13.31
2022-10-05T21:24:11.293Z,13.29
2022-10-05T21:26:38.414Z,13.25
2022-10-05T21:29:10.209Z,13.25
2022-10-05T21:31:40.763Z,13.29
2022-10-05T21:34:08.062Z,13.32
2022-10-05T21:36:35.390Z,13.34
2022-10-05T21:39:02.272Z,13.36
2022-10-05T21:41:29.072Z,13.37
2022-10-05T21:43:55.877Z,13.42
2022-10-05T21:46:26.429Z,13.45
2022-10-05T21:48:56.050Z,13.45
2022-10-05T21:51:25.215Z,13.43
2022-10-05T21:53:55.051Z,13.37
2022-10-05T21:56:25.802Z,13.36
2022-10-05T21:58:52.927Z,13.43
2022-10-05T22:01:22.655Z,13.46
2022-10-05T22:03:50.122Z,13.47
2022-10-05T22:06:18.300Z,13.54
2022-10-05T22:08:45.141Z,13.58
2022-10-05T22:11:14.993Z,13.60
2022-10-05T22:13:43.707Z,13.65
2022-10-05T22:16:11.901Z,13.60
2022-10-05T22:18:38.955Z,13.52
2022-10-05T22:21:07.063Z,13.40
2022-10-05T22:23:35.996Z,13.38
2022-10-05T22:26:04.080Z,13.29
2022-10-05T22:28:32.595Z,13.32
2022-10-05T22:31:01.856Z,13.31
2022-10-05T22:33:28.698Z,13.33
2022-10-05T22:35:56.908Z,13.37
2022-10-05T22:38:23.739Z,13.44
2022-10-05T22:40:52.272Z,13.41
2022-10-05T22:43:19.067Z,13.41
2022-10-05T22:45:45.885Z,13.32
2022-10-05T22:48:13.243Z,13.32
2022-10-05T22:50:40.199Z,13.20
2022-10-05T22:53:07.198Z,13.08
2022-10-05T22:55:33.982Z,13.08
2022-10-05T22:58:02.842Z,13.05
2022-10-05T23:00:53.386Z,12.99
2022-10-05T23:03:16.453Z,12.92
2022-10-05T23:05:43.276Z,12.88
2022-10-05T23:08:09.992Z,12.88
2022-10-05T23:10:36.858Z,12.84
2022-10-05T23:13:05.189Z,12.78
2022-10-05T23:15:32.143Z,12.76
2022-10-05T23:17:59.406Z,12.78
2022-10-05T23:20:26.356Z,12.81
2022-10-05T23:22:53.173Z,12.82
2022-10-05T23:25:22.228Z,12.78
2022-10-05T23:27:49.268Z,12.81
2022-10-05T23:30:17.509Z,12.81
2022-10-05T23:32:45.001Z,12.81
2022-10-05T23:35:13.170Z,12.81
2022-10-05T23:37:40.879Z,12.81
2022-10-05T23:40:11.819Z,12.84
2022-10-05T23:42:39.168Z,12.84
2022-10-05T23:45:06.832Z,12.80
2022-10-05T23:47:35.029Z,12.67
2022-10-05T23:50:01.965Z,12.75
2022-10-05T23:52:28.816Z,12.78
2022-10-05T23:54:55.604Z,12.90
2022-10-05T23:57:22.483Z,12.92
2022-10-05T23:59:52.005Z,12.89
